Terminal Aerodrome Forecast
Issued by NWS Duluth, MN

Home | Current Version | Previous Version | Text Only | Print | Product List | Glossary On
Versions: 1 2 3 4 5 6 7 8 9 10 11 12 13 14 15 16 17 18
786
FTUS43 KDLH 220533
TAFINL
TAF
KINL 220533Z 2206/2306 00000KT P6SM SKC
     FM221200 19006KT P6SM SKC
     FM221500 19013G21KT P6SM SKC
     FM230100 18007KT P6SM BKN050=

USA.gov is the U.S. government's official web portal to all federal, state and local government web resources and services.